createdAt,value
2022-09-17T00:01:29.684Z,3.95
2022-09-17T00:04:02.326Z,4.18
2022-09-17T00:06:30.249Z,4.05
2022-09-17T00:08:57.639Z,4.05
2022-09-17T00:11:28.106Z,4.57
2022-09-17T00:13:55.627Z,3.97
2022-09-17T00:16:31.487Z,4.32
2022-09-17T00:19:00.674Z,4.03
2022-09-17T00:21:29.009Z,4.25
2022-09-17T00:23:58.380Z,4.45
2022-09-17T00:26:26.856Z,3.80
2022-09-17T00:28:55.766Z,4.43
2022-09-17T00:31:24.511Z,4.85
2022-09-17T00:33:52.968Z,5.43
2022-09-17T00:36:21.538Z,5.30
2022-09-17T00:38:53.243Z,4.93
2022-09-17T00:41:21.595Z,5.35
2022-09-17T00:43:54.511Z,4.82
2022-09-17T00:46:44.942Z,5.00
2022-09-17T00:49:24.119Z,5.10
2022-09-17T00:52:15.898Z,5.43
2022-09-17T00:54:49.511Z,5.18
2022-09-17T00:57:17.891Z,4.43
2022-09-17T00:59:48.519Z,4.43
2022-09-17T01:02:16.354Z,4.63
2022-09-17T01:04:43.836Z,5.35
2022-09-17T01:07:47.480Z,5.72
2022-09-17T01:10:22.587Z,5.28
2022-09-17T01:13:28.645Z,5.07
2022-09-17T01:16:26.893Z,4.67
2022-09-17T01:18:58.453Z,4.53
2022-09-17T01:22:03.555Z,4.20
2022-09-17T01:24:30.883Z,3.80
2022-09-17T01:27:10.781Z,4.05
2022-09-17T01:29:59.376Z,3.95
2022-09-17T01:32:47.063Z,4.60
2022-09-17T01:35:39.271Z,4.38
2022-09-17T01:38:23.517Z,3.85
2022-09-17T01:40:55.780Z,3.90
2022-09-17T01:43:36.870Z,3.92
2022-09-17T01:46:15.749Z,4.22
2022-09-17T01:48:47.788Z,3.95
2022-09-17T01:51:19.150Z,4.30
2022-09-17T01:53:59.272Z,4.00
2022-09-17T01:56:52.391Z,3.88
2022-09-17T01:59:25.506Z,4.35
2022-09-17T02:02:00.580Z,4.00
2022-09-17T02:04:38.827Z,3.50
2022-09-17T02:07:14.678Z,4.18
2022-09-17T02:09:53.639Z,3.90
2022-09-17T02:12:29.117Z,3.72
2022-09-17T02:14:59.405Z,3.90
2022-09-17T02:17:43.077Z,4.65
2022-09-17T02:20:13.031Z,3.70
2022-09-17T02:22:45.336Z,4.07
2022-09-17T02:25:26.595Z,4.63
2022-09-17T03:21:07.691Z,4.15
2022-09-17T03:23:35.101Z,4.35
2022-09-17T03:26:02.457Z,4.65
2022-09-17T03:28:29.850Z,4.75
2022-09-17T03:30:57.287Z,4.38
2022-09-17T03:33:24.648Z,4.18
2022-09-17T03:35:52.030Z,4.60
2022-09-17T03:38:19.433Z,4.35
2022-09-17T03:40:58.246Z,4.47
2022-09-17T03:43:25.752Z,4.47
2022-09-17T03:45:53.455Z,4.18
2022-09-17T03:48:21.131Z,3.90
2022-09-17T03:50:48.608Z,3.75
2022-09-17T03:53:16.377Z,3.85
2022-09-17T03:55:44.951Z,4.15
2022-09-17T03:58:12.360Z,4.07
2022-09-17T04:00:40.384Z,3.90
2022-09-17T04:03:07.738Z,3.85
2022-09-17T04:05:35.202Z,4.32
2022-09-17T04:08:03.005Z,4.07
2022-09-17T04:10:30.337Z,4.40
2022-09-17T04:12:57.697Z,4.05
2022-09-17T04:15:25.153Z,4.55
2022-09-17T04:17:56.189Z,3.70
2022-09-17T04:20:24.964Z,4.22
2022-09-17T04:22:53.133Z,3.53
2022-09-17T04:25:20.513Z,4.55
2022-09-17T04:27:50.882Z,4.30
2022-09-17T04:30:18.726Z,4.38
2022-09-17T04:32:46.642Z,4.63
2022-09-17T04:35:14.213Z,4.97
2022-09-17T04:37:41.676Z,4.88
2022-09-17T04:40:09.825Z,5.22
2022-09-17T04:42:37.131Z,5.05
2022-09-17T04:45:07.193Z,4.38
2022-09-17T04:47:34.589Z,4.55
2022-09-17T04:50:01.884Z,4.53
2022-09-17T04:52:31.141Z,4.85
2022-09-17T04:54:58.549Z,4.75
2022-09-17T04:57:29.029Z,4.85
2022-09-17T04:59:56.282Z,3.40
2022-09-17T05:02:29.209Z,3.33
2022-09-17T05:04:57.154Z,3.33
2022-09-17T05:07:24.467Z,3.22
2022-09-17T05:09:51.814Z,2.22
2022-09-17T05:12:19.817Z,2.40
2022-09-17T05:14:47.304Z,2.72
2022-09-17T05:17:14.703Z,2.80
2022-09-17T05:19:41.992Z,2.30
2022-09-17T05:22:09.437Z,2.50
2022-09-17T05:24:39.619Z,2.42
2022-09-17T05:27:07.613Z,2.78
2022-09-17T05:29:35.113Z,2.80
2022-09-17T05:32:03.387Z,2.80
2022-09-17T05:34:30.834Z,3.00
2022-09-17T05:36:58.579Z,2.70
2022-09-17T05:39:25.943Z,2.83
2022-09-17T05:41:54.059Z,3.70
2022-09-17T05:44:22.809Z,3.55
2022-09-17T05:46:53.285Z,3.28
2022-09-17T05:49:20.743Z,2.75
2022-09-17T05:51:48.569Z,3.20
2022-09-17T05:54:17.763Z,2.80
2022-09-17T05:56:45.054Z,2.80
2022-09-17T05:59:12.921Z,3.22
2022-09-17T06:01:40.266Z,3.75
2022-09-17T06:04:07.701Z,3.65
2022-09-17T06:06:36.887Z,3.50
2022-09-17T06:09:06.887Z,3.80
2022-09-17T06:11:34.612Z,4.65
2022-09-17T06:14:02.040Z,3.58
2022-09-17T06:16:29.503Z,4.60
2022-09-17T06:18:57.112Z,5.18
2022-09-17T06:21:24.561Z,6.10
2022-09-17T06:23:52.058Z,5.07
2022-09-17T06:26:19.517Z,6.05
2022-09-17T06:28:46.880Z,6.07
2022-09-17T06:31:14.724Z,5.82
2022-09-17T06:33:42.135Z,6.18
2022-09-17T06:36:14.784Z,5.30
2022-09-17T06:38:43.095Z,4.13
2022-09-17T06:41:10.520Z,4.50
2022-09-17T06:43:37.765Z,3.90
2022-09-17T06:46:06.825Z,3.28
2022-09-17T06:48:35.441Z,3.80
2022-09-17T06:51:05.610Z,4.00
2022-09-17T06:53:33.435Z,4.45
2022-09-17T06:56:11.881Z,4.32
2022-09-17T06:58:41.831Z,4.18
2022-09-17T07:01:11.048Z,4.95
2022-09-17T07:03:39.054Z,3.75
2022-09-17T07:06:11.014Z,3.78
2022-09-17T07:08:39.670Z,4.10
2022-09-17T07:11:08.285Z,4.30
2022-09-17T07:13:35.988Z,3.55
2022-09-17T07:16:07.292Z,3.55
2022-09-17T07:18:34.845Z,3.45
2022-09-17T07:21:04.665Z,3.15
2022-09-17T07:23:36.762Z,3.10
2022-09-17T07:26:07.536Z,3.08
2022-09-17T07:28:40.246Z,3.13
2022-09-17T07:31:11.374Z,3.05
2022-09-17T07:33:43.030Z,3.20
2022-09-17T07:36:15.891Z,3.38
2022-09-17T07:38:43.284Z,3.50
2022-09-17T07:41:13.600Z,3.90
2022-09-17T07:43:44.116Z,3.22
2022-09-17T07:46:17.930Z,2.92
2022-09-17T07:48:48.645Z,2.95
2022-09-17T07:51:17.924Z,3.03
2022-09-17T07:53:45.860Z,3.92
2022-09-17T07:56:15.470Z,2.25
2022-09-17T07:58:43.015Z,2.35
2022-09-17T08:01:12.325Z,1.58
2022-09-17T08:03:40.504Z,2.13
2022-09-17T08:06:11.566Z,1.95
2022-09-17T08:08:40.073Z,2.00
2022-09-17T08:11:23.659Z,1.45
2022-09-17T08:14:00.269Z,1.77
2022-09-17T08:16:28.369Z,1.65
2022-09-17T08:18:57.980Z,1.92
2022-09-17T08:21:25.472Z,1.88
2022-09-17T08:23:53.131Z,1.52
2022-09-17T08:26:26.052Z,1.60
2022-09-17T08:28:55.831Z,1.60
2022-09-17T08:31:25.798Z,1.40
2022-09-17T08:33:53.554Z,1.50
2022-09-17T08:36:22.980Z,1.60
2022-09-17T08:39:03.049Z,1.33
2022-09-17T08:41:51.011Z,1.80
2022-09-17T08:44:40.221Z,1.42
2022-09-17T08:47:18.654Z,1.95
2022-09-17T08:49:54.262Z,1.70
2022-09-17T08:52:40.099Z,1.50
2022-09-17T08:58:12.133Z,1.73
2022-09-17T09:00:51.034Z,1.70
2022-09-17T09:03:37.542Z,1.80
2022-09-17T09:06:10.537Z,2.03
2022-09-17T09:08:57.396Z,1.80
2022-09-17T09:11:28.522Z,2.55
2022-09-17T09:14:10.276Z,2.30
2022-09-17T09:16:42.523Z,1.83
2022-09-17T09:19:24.022Z,2.58
2022-09-17T09:21:54.439Z,2.47
2022-09-17T09:24:27.082Z,2.40
2022-09-17T09:27:20.606Z,2.67
2022-09-17T09:30:06.987Z,1.95
2022-09-17T09:32:37.119Z,2.15
2022-09-17T09:35:18.351Z,2.38
2022-09-17T09:38:17.670Z,2.15
2022-09-17T09:40:48.637Z,2.10
2022-09-17T09:43:52.717Z,1.98
2022-09-17T09:46:36.685Z,1.60
2022-09-17T09:49:16.110Z,1.50
2022-09-17T09:52:03.039Z,1.75
2022-09-17T09:54:55.016Z,1.30
2022-09-17T09:57:56.099Z,1.60
2022-09-17T10:00:27.098Z,1.40
2022-09-17T10:03:20.943Z,1.20
2022-09-17T10:05:59.422Z,1.23
2022-09-17T10:08:28.236Z,1.40
2022-09-17T10:10:57.094Z,1.10
2022-09-17T10:13:24.914Z,2.03
2022-09-17T10:15:52.599Z,1.95
2022-09-17T10:18:22.332Z,1.63
2022-09-17T10:20:55.394Z,1.80
2022-09-17T10:23:25.568Z,1.77
2022-09-17T10:25:55.837Z,2.17
2022-09-17T10:28:41.160Z,1.50
2022-09-17T10:31:11.179Z,1.60
2022-09-17T10:34:03.568Z,1.67
2022-09-17T10:36:47.768Z,1.63
2022-09-17T10:39:38.358Z,1.60
2022-09-17T10:42:11.649Z,1.27
2022-09-17T10:44:50.532Z,1.63
2022-09-17T10:47:26.092Z,1.60
2022-09-17T10:50:04.838Z,1.95
2022-09-17T10:52:37.901Z,1.70
2022-09-17T10:55:08.074Z,1.40
2022-09-17T10:58:07.572Z,1.67
2022-09-17T11:00:38.183Z,1.30
2022-09-17T11:03:17.643Z,1.30
2022-09-17T11:06:00.698Z,2.00
2022-09-17T11:09:05.258Z,1.45
2022-09-17T11:12:14.320Z,1.20
2022-09-17T11:14:54.114Z,2.35
2022-09-17T11:17:31.787Z,1.88
2022-09-17T11:20:21.771Z,1.67
2022-09-17T11:23:27.591Z,2.20
2022-09-17T11:26:03.999Z,1.95
2022-09-17T11:29:01.218Z,1.75
2022-09-17T11:31:43.983Z,1.50
2022-09-17T11:34:17.730Z,1.33
2022-09-17T11:37:23.616Z,2.15
2022-09-17T11:40:14.218Z,1.93
2022-09-17T11:42:57.001Z,1.30
2022-09-17T11:45:37.140Z,1.40
2022-09-17T11:48:12.046Z,1.60
2022-09-17T11:50:52.275Z,1.70
2022-09-17T11:53:38.261Z,1.60
2022-09-17T11:56:11.691Z,1.70
2022-09-17T11:58:42.050Z,1.20
2022-09-17T12:01:38.433Z,1.88
2022-09-17T12:04:30.706Z,1.70
2022-09-17T12:07:16.472Z,1.30
2022-09-17T12:12:47.741Z,1.30
2022-09-17T12:15:30.218Z,1.20
2022-09-17T12:18:33.977Z,1.50
2022-09-17T12:21:05.915Z,1.30
2022-09-17T12:23:44.675Z,1.60
2022-09-17T12:26:53.362Z,1.60
2022-09-17T12:29:42.888Z,1.75
2022-09-17T12:32:21.867Z,1.70
2022-09-17T12:35:04.031Z,1.77
2022-09-17T12:37:40.830Z,1.75
2022-09-17T12:40:49.787Z,1.70
2022-09-17T12:43:39.164Z,1.27
2022-09-17T12:46:21.955Z,1.77
2022-09-17T12:49:07.904Z,1.55
2022-09-17T12:52:01.241Z,2.00
2022-09-17T12:54:31.260Z,1.75
2022-09-17T12:57:16.471Z,1.88
2022-09-17T13:00:00.290Z,1.38
2022-09-17T13:02:57.389Z,1.83
2022-09-17T13:05:36.120Z,2.00
2022-09-17T13:08:06.757Z,2.20
2022-09-17T13:10:52.511Z,2.28
2022-09-17T13:16:19.907Z,2.10
2022-09-17T13:19:17.398Z,2.03
2022-09-17T13:21:56.911Z,2.30
2022-09-17T13:24:27.472Z,1.67
2022-09-17T13:26:56.471Z,1.77
2022-09-17T13:29:45.425Z,1.98
2022-09-17T13:32:33.111Z,2.05
2022-09-17T13:35:12.402Z,2.10
2022-09-17T13:37:58.950Z,2.08
2022-09-17T13:40:36.631Z,1.77
2022-09-17T13:43:20.179Z,2.00
2022-09-17T13:45:59.705Z,1.95
2022-09-17T13:48:34.383Z,2.08
2022-09-17T13:51:37.252Z,2.53
2022-09-17T13:54:07.746Z,1.73
2022-09-17T13:56:44.595Z,1.50
2022-09-17T13:59:28.708Z,1.80
2022-09-17T14:02:26.351Z,2.08
2022-09-17T14:05:24.991Z,2.22
2022-09-17T14:08:06.286Z,1.88
2022-09-17T14:10:42.507Z,2.22
2022-09-17T14:13:36.251Z,2.50
2022-09-17T14:16:23.532Z,1.90
2022-09-17T14:19:03.658Z,2.22
2022-09-17T14:21:33.673Z,2.05
2022-09-17T14:24:05.176Z,2.60
2022-09-17T14:26:49.339Z,2.53
2022-09-17T14:29:25.772Z,2.10
2022-09-17T14:31:53.361Z,2.10
2022-09-17T14:34:24.156Z,2.00
2022-09-17T14:36:53.194Z,2.47
2022-09-17T14:39:23.698Z,1.95
2022-09-17T14:41:54.892Z,2.63
2022-09-17T14:44:26.061Z,2.63
2022-09-17T14:47:01.930Z,2.70
2022-09-17T14:49:33.539Z,2.25
2022-09-17T14:52:02.547Z,2.53
2022-09-17T14:54:36.587Z,2.50
2022-09-17T14:57:12.614Z,2.90
2022-09-17T14:59:51.273Z,2.80
2022-09-17T15:02:44.410Z,3.03
2022-09-17T15:05:33.279Z,2.35
2022-09-17T15:08:10.028Z,2.20
2022-09-17T15:10:48.214Z,2.63
2022-09-17T15:13:49.875Z,2.60
2022-09-17T15:16:22.642Z,2.78
2022-09-17T15:18:54.748Z,2.35
2022-09-17T15:21:35.283Z,2.15
2022-09-17T15:24:23.391Z,2.00
2022-09-17T15:26:54.054Z,1.90
2022-09-17T15:29:26.427Z,2.15
2022-09-17T15:31:54.102Z,1.80
2022-09-17T15:34:22.946Z,1.98
2022-09-17T15:37:18.015Z,2.47
2022-09-17T15:39:53.247Z,2.10
2022-09-17T15:42:27.989Z,2.63
2022-09-17T15:45:20.147Z,2.53
2022-09-17T15:47:56.220Z,1.90
2022-09-17T15:50:34.790Z,2.70
2022-09-17T15:53:11.010Z,2.90
2022-09-17T15:55:44.730Z,5.30
2022-09-17T15:58:30.328Z,4.10
2022-09-17T16:01:16.072Z,3.75
2022-09-17T16:03:46.223Z,3.95
2022-09-17T16:06:19.575Z,3.60
2022-09-17T16:08:51.832Z,2.40
2022-09-17T16:11:22.314Z,2.58
2022-09-17T16:13:53.735Z,2.35
2022-09-17T16:16:36.285Z,2.83
2022-09-17T16:19:07.003Z,4.07
2022-09-17T16:21:34.399Z,2.42
2022-09-17T16:24:02.189Z,2.80
2022-09-17T16:26:31.869Z,2.90
2022-09-17T16:29:14.438Z,2.38
2022-09-17T16:31:41.963Z,2.70
2022-09-17T16:34:09.244Z,2.90
2022-09-17T16:36:36.816Z,2.63
2022-09-17T16:39:05.400Z,2.63
2022-09-17T16:41:32.846Z,2.50
2022-09-17T16:44:00.190Z,2.55
2022-09-17T16:46:27.753Z,3.30
2022-09-17T16:48:56.874Z,4.70
2022-09-17T16:51:24.289Z,3.30
2022-09-17T16:53:54.519Z,3.20
2022-09-17T16:56:22.076Z,3.40
2022-09-17T16:58:52.024Z,3.83
2022-09-17T17:01:19.326Z,3.50
2022-09-17T17:03:49.318Z,2.90
2022-09-17T17:06:18.807Z,3.00
2022-09-17T17:08:46.459Z,3.13
2022-09-17T17:11:14.484Z,3.78
2022-09-17T17:13:47.808Z,3.10
2022-09-17T17:16:19.111Z,3.22
2022-09-17T17:18:46.699Z,3.47
2022-09-17T17:21:18.180Z,3.33
2022-09-17T17:23:48.248Z,3.47
2022-09-17T17:26:16.692Z,3.22
2022-09-17T17:28:44.629Z,2.88
2022-09-17T17:31:17.245Z,3.65
2022-09-17T17:33:45.245Z,3.28
2022-09-17T17:36:12.923Z,3.20
2022-09-17T17:38:40.356Z,3.42
2022-09-17T17:41:13.368Z,3.00
2022-09-17T17:43:41.648Z,2.50
2022-09-17T17:46:10.754Z,3.92
2022-09-17T17:48:38.610Z,3.50
2022-09-17T17:51:08.069Z,2.80
2022-09-17T17:53:38.165Z,3.30
2022-09-17T17:56:07.924Z,2.92
2022-09-17T17:58:36.334Z,2.90
2022-09-17T18:01:26.897Z,3.05
2022-09-17T18:04:02.219Z,3.05
2022-09-17T18:06:30.599Z,3.28
2022-09-17T18:08:58.040Z,2.92
2022-09-17T18:11:25.990Z,3.20
2022-09-17T18:13:55.196Z,2.80
2022-09-17T18:16:23.950Z,3.70
2022-09-17T18:18:51.261Z,3.05
2022-09-17T18:21:21.350Z,3.63
2022-09-17T18:23:49.712Z,3.22
2022-09-17T18:26:25.562Z,3.58
2022-09-17T18:28:53.292Z,3.92
2022-09-17T18:31:26.820Z,3.85
2022-09-17T18:34:05.910Z,3.75
2022-09-17T18:36:35.894Z,3.65
2022-09-17T18:41:56.472Z,3.97
2022-09-17T18:44:34.821Z,3.55
2022-09-17T18:47:07.334Z,4.50
2022-09-17T18:49:36.906Z,5.35
2022-09-17T18:52:04.272Z,5.45
2022-09-17T18:54:34.375Z,6.47
2022-09-17T18:57:07.858Z,5.13
2022-09-17T18:59:35.311Z,4.97
2022-09-17T19:02:02.832Z,4.85
2022-09-17T19:04:36.066Z,5.32
2022-09-17T19:07:05.836Z,5.43
2022-09-17T19:09:33.252Z,4.22
2022-09-17T19:12:00.811Z,5.10
2022-09-17T19:14:28.168Z,4.90
2022-09-17T19:16:56.671Z,5.30
2022-09-17T19:19:26.441Z,6.05
2022-09-17T19:21:58.268Z,5.70
2022-09-17T19:24:26.568Z,6.13
2022-09-17T19:26:54.110Z,6.40
2022-09-17T19:29:22.011Z,6.07
2022-09-17T19:31:55.269Z,6.78
2022-09-17T19:34:28.742Z,7.07
2022-09-17T19:36:56.075Z,8.27
2022-09-17T19:39:23.892Z,8.30
2022-09-17T19:41:54.220Z,8.48
2022-09-17T19:44:47.807Z,8.52
2022-09-17T19:47:22.437Z,8.60
2022-09-17T19:49:57.726Z,9.05
2022-09-17T19:52:29.457Z,7.90
2022-09-17T19:55:00.094Z,8.77
2022-09-17T19:57:27.475Z,9.15
2022-09-17T19:59:57.172Z,8.73
2022-09-17T20:02:24.803Z,9.02
2022-09-17T20:04:52.120Z,10.00
2022-09-17T20:07:19.505Z,8.75
2022-09-17T20:09:46.958Z,9.10
2022-09-17T20:12:21.624Z,9.65
2022-09-17T20:14:53.129Z,9.73
2022-09-17T20:17:20.702Z,10.88
2022-09-17T20:19:48.161Z,11.48
2022-09-17T20:22:17.336Z,11.85
2022-09-17T20:24:48.865Z,11.07
2022-09-17T20:27:18.473Z,10.57
2022-09-17T20:29:46.132Z,10.80
2022-09-17T20:32:13.557Z,10.57
2022-09-17T20:34:41.328Z,12.77
2022-09-17T20:37:13.564Z,11.85
2022-09-17T20:39:41.365Z,11.95
2022-09-17T20:42:08.962Z,12.82
2022-09-17T20:44:36.348Z,12.70
2022-09-17T20:47:03.714Z,12.23
2022-09-17T20:49:31.023Z,11.38
2022-09-17T20:52:00.698Z,12.27
2022-09-17T20:54:33.777Z,11.50
2022-09-17T20:57:01.669Z,12.73
2022-09-17T20:59:40.178Z,11.60
2022-09-17T21:02:11.767Z,12.93
2022-09-17T21:04:39.368Z,11.18
2022-09-17T21:07:06.882Z,12.18
2022-09-17T21:09:34.849Z,12.52
2022-09-17T21:12:02.284Z,11.95
2022-09-17T21:14:29.708Z,11.55
2022-09-17T21:16:59.854Z,12.85
2022-09-17T21:19:28.242Z,12.63
2022-09-17T21:21:59.813Z,12.65
2022-09-17T21:24:27.462Z,11.85
2022-09-17T21:26:54.894Z,11.77
2022-09-17T21:29:22.317Z,11.05
2022-09-17T21:31:49.726Z,10.50
2022-09-17T21:34:18.653Z,11.73
2022-09-17T21:36:48.369Z,12.93
2022-09-17T21:39:17.694Z,11.60
2022-09-17T21:41:49.107Z,11.52
2022-09-17T21:44:17.439Z,10.38
2022-09-17T21:46:45.011Z,9.98
2022-09-17T21:49:13.692Z,8.60
2022-09-17T21:51:43.245Z,8.95
2022-09-17T21:54:16.165Z,8.32
2022-09-17T21:56:44.329Z,9.30
2022-09-17T21:59:14.214Z,7.47
2022-09-17T22:01:50.293Z,7.10
2022-09-17T22:04:20.394Z,7.75
2022-09-17T22:06:49.174Z,6.85
2022-09-17T22:09:22.751Z,5.55
2022-09-17T22:11:51.259Z,5.43
2022-09-17T22:14:23.959Z,5.93
2022-09-17T22:16:54.168Z,5.75
2022-09-17T22:19:26.303Z,5.63
2022-09-17T22:21:55.549Z,5.63
2022-09-17T22:24:25.196Z,5.43
2022-09-17T22:26:57.807Z,5.95
2022-09-17T22:29:27.561Z,6.13
2022-09-17T22:32:00.783Z,5.60
2022-09-17T22:34:31.023Z,5.53
2022-09-17T22:37:00.094Z,5.03
2022-09-17T22:39:29.834Z,5.60
2022-09-17T22:42:00.534Z,5.53
2022-09-17T22:44:28.723Z,5.38
2022-09-17T22:46:57.098Z,6.43
2022-09-17T22:49:24.669Z,5.28
2022-09-17T22:51:55.475Z,5.90
2022-09-17T22:54:22.914Z,5.25
2022-09-17T22:56:50.441Z,5.53
2022-09-17T22:59:18.540Z,5.30
2022-09-17T23:01:46.352Z,4.88
2022-09-17T23:04:13.905Z,4.93
2022-09-17T23:06:44.391Z,4.70
2022-09-17T23:09:19.481Z,5.35
2022-09-17T23:11:47.225Z,4.95
2022-09-17T23:14:17.646Z,4.43
2022-09-17T23:16:47.861Z,5.22
2022-09-17T23:19:17.415Z,4.95
2022-09-17T23:21:46.031Z,5.22
2022-09-17T23:24:23.464Z,4.82
2022-09-17T23:26:51.894Z,5.43
2022-09-17T23:29:19.440Z,5.28
2022-09-17T23:31:49.740Z,5.57
2022-09-17T23:34:19.139Z,4.80
2022-09-17T23:36:47.640Z,4.30
2022-09-17T23:39:15.105Z,4.10
2022-09-17T23:41:45.054Z,4.30
2022-09-17T23:44:15.602Z,4.15
2022-09-17T23:46:46.327Z,3.53
2022-09-17T23:49:14.719Z,4.32
2022-09-17T23:51:43.999Z,3.53
2022-09-17T23:54:11.464Z,4.25
2022-09-17T23:56:38.971Z,4.13
2022-09-17T23:59:07.547Z,3.80
